Time;durP1;ratioP1;P1;durP2;ratioP2;P2;SDS_P1;SDS_P2;PMS_P1;PMS_P2;Temp;Humidity;BMP_temperature;BMP_pressure;BME280_temperature;BME280_humidity;BME280_pressure;Samples;Min_cycle;Max_cycle;Signal;HPM_P1;HPM_P2
2022/11/11 03:45:44;;;;;;;9.73;4.95;;;15.10;78.40;;;;;;4842226;24;20060;-77
2022/11/11 03:48:14;;;;;;;14.20;5.47;;;15.10;78.50;;;;;;4720062;30;20083;-77
2022/11/11 03:50:43;;;;;;;14.02;6.30;;;15.20;78.70;;;;;;4720897;30;20083;-74
2022/11/11 03:53:09;;;;;;;10.63;6.03;;;15.20;78.90;;;;;;4736410;30;20060;-76
2022/11/11 03:55:35;;;;;;;10.63;4.90;;;15.20;79.10;;;;;;4736364;30;20109;-78
2022/11/11 03:58:06;;;;;;;9.90;4.53;;;15.30;78.90;;;;;;4736189;30;20418;-78
2022/11/11 04:00:32;;;;;;;14.95;4.60;;;15.50;78.80;;;;;;4706254;30;20053;-77
2022/11/11 04:11:43;;;;;;;11.32;4.05;;;16.00;78.60;;;;;;4736065;30;20140;-77
2022/11/11 04:16:56;;;;;;;11.90;4.20;;;16.10;79.00;;;;;;4736090;30;20056;-77
2022/11/11 04:22:07;;;;;;;14.80;4.35;;;16.10;79.10;;;;;;4738077;30;20048;-80
2022/11/11 04:27:18;;;;;;;;;;;16.10;79.10;;;;;;4739756;30;20396;-77
2022/11/11 04:29:46;;;;;;;17.45;6.00;;;16.10;79.00;;;;;;4738602;30;19926;-77
2022/11/11 04:32:37;;;;;;;15.50;6.75;;;16.10;79.00;;;;;;4709786;30;20057;-77
2022/11/11 04:35:08;;;;;;;19.30;6.82;;;16.10;78.90;;;;;;4739039;30;20369;-77
2022/11/11 04:37:35;;;;;;;12.90;5.90;;;16.00;78.80;;;;;;4753001;30;20078;-78
2022/11/11 04:42:46;;;;;;;14.38;8.00;;;16.00;79.00;;;;;;4756443;30;20410;-81
2022/11/11 04:45:29;;;;;;;17.85;8.93;;;16.00;78.80;;;;;;4740929;30;20098;-80
2022/11/11 04:48:01;;;;;;;16.58;9.02;;;16.00;78.70;;;;;;4755856;30;20488;-77
2022/11/11 04:50:32;;;;;;;15.93;9.63;;;16.00;78.60;;;;;;4740588;30;20079;-78
2022/11/11 04:52:59;;;;;;;12.18;8.98;;;16.00;78.40;;;;;;4740599;30;20198;-80
2022/11/11 04:58:10;;;;;;;21.40;10.77;;;16.00;78.00;;;;;;4751728;30;20449;-76
2022/11/11 05:00:36;;;;;;;16.23;10.25;;;16.00;77.90;;;;;;4723044;30;20464;-80
2022/11/11 05:03:17;;;;;;;13.05;10.18;;;15.90;77.70;;;;;;4708442;30;20044;-77
2022/11/11 05:08:56;;;;;;;16.95;10.82;;;15.90;77.60;;;;;;4738463;30;20065;-78
2022/11/11 05:11:29;;;;;;;18.50;11.57;;;15.90;77.30;;;;;;4721940;30;20478;-77
2022/11/11 05:22:17;;;;;;;17.83;11.15;;;15.90;77.70;;;;;;4722469;30;20060;-74
2022/11/11 05:27:27;;;;;;;;;;;15.90;78.10;;;;;;4738707;30;20048;-77
2022/11/11 05:29:53;;;;;;;21.02;9.77;;;15.80;78.20;;;;;;4738344;30;19922;-73
2022/11/11 05:32:20;;;;;;;21.17;10.13;;;15.80;78.80;;;;;;4738173;30;20048;-74
2022/11/11 05:34:47;;;;;;;19.90;11.55;;;15.80;79.00;;;;;;4708394;30;20052;-75
2022/11/11 05:37:13;;;;;;;12.55;9.27;;;15.90;78.70;;;;;;4737844;30;20058;-77
2022/11/11 05:39:39;;;;;;;17.65;10.88;;;15.70;77.70;;;;;;4722203;30;20074;-76
2022/11/11 05:42:05;;;;;;;19.05;11.40;;;15.60;77.70;;;;;;4738295;30;20052;-75
2022/11/11 05:44:31;;;;;;;17.85;11.77;;;15.50;77.50;;;;;;4737722;30;20048;-75
2022/11/11 05:46:57;;;;;;;16.45;11.10;;;15.40;77.90;;;;;;4737804;30;20495;-77
2022/11/11 05:49:26;;;;;;;20.55;11.18;;;15.50;78.90;;;;;;4722675;30;20411;-79
2022/11/11 05:51:52;;;;;;;16.45;10.90;;;15.50;79.50;;;;;;4737645;30;20041;-78
2022/11/11 05:54:18;;;;;;;19.55;10.88;;;15.50;79.60;;;;;;4737526;30;20071;-77
2022/11/11 05:56:44;;;;;;;19.73;10.52;;;15.60;79.70;;;;;;4737263;30;20048;-76
2022/11/11 05:59:10;;;;;;;18.67;10.85;;;15.70;80.10;;;;;;4722205;30;20063;-78
2022/11/11 06:01:36;;;;;;;20.95;10.40;;;15.70;80.10;;;;;;4737221;30;20083;-76
2022/11/11 06:04:04;;;;;;;18.35;10.38;;;15.70;80.10;;;;;;4737140;30;20524;-77
2022/11/11 06:06:30;;;;;;;19.73;11.70;;;15.80;80.40;;;;;;4737652;30;20095;-77
2022/11/11 06:08:56;;;;;;;20.80;10.52;;;15.60;78.00;;;;;;4737168;30;20419;-78
2022/11/11 06:11:22;;;;;;;23.23;9.80;;;15.60;79.70;;;;;;4737520;30;20434;-77
2022/11/11 06:13:48;;;;;;;16.65;8.85;;;15.70;80.50;;;;;;4737136;30;20092;-75
2022/11/11 06:16:14;;;;;;;22.38;9.65;;;15.70;80.60;;;;;;4737684;30;20095;-78
2022/11/11 06:18:40;;;;;;;26.25;13.60;;;15.80;80.70;;;;;;4722049;30;20060;-74
2022/11/11 06:21:06;;;;;;;23.30;16.30;;;15.80;80.10;;;;;;4737563;30;20052;-75
2022/11/11 06:23:31;;;;;;;23.52;16.83;;;15.80;78.30;;;;;;4736909;30;20366;-75
2022/11/11 06:26:13;;;;;;;24.63;16.58;;;15.70;76.90;;;;;;4737362;30;20067;-78
2022/11/11 06:28:53;;;;;;;24.55;16.38;;;15.60;76.10;;;;;;4736972;30;20080;-75
2022/11/11 06:31:24;;;;;;;25.95;15.35;;;15.60;76.30;;;;;;4736899;30;20084;-78
2022/11/11 06:33:49;;;;;;;26.23;15.57;;;15.60;76.80;;;;;;4736935;30;20044;-79
2022/11/11 06:36:17;;;;;;;28.75;15.75;;;15.60;77.10;;;;;;4737114;30;20131;-78
2022/11/11 06:38:42;;;;;;;23.80;12.45;;;15.60;77.50;;;;;;4736766;30;20060;-78
2022/11/11 06:41:11;;;;;;;26.77;12.50;;;15.60;77.70;;;;;;4737320;30;20354;-77
2022/11/11 06:43:38;;;;;;;20.58;12.50;;;15.70;77.80;;;;;;4736550;30;20044;-76
2022/11/11 06:46:14;;;;;;;22.63;12.15;;;15.80;77.60;;;;;;4736469;30;20053;-75
2022/11/11 06:48:43;;;;;;;25.83;13.05;;;15.90;77.50;;;;;;4721449;30;20071;-78
2022/11/11 06:51:11;;;;;;;27.92;12.82;;;15.90;77.50;;;;;;4736989;30;20097;-75
2022/11/11 06:53:37;;;;;;;26.90;11.00;;;16.00;77.60;;;;;;4737152;30;20056;-78
2022/11/11 06:56:03;;;;;;;23.92;11.75;;;16.10;77.60;;;;;;4736754;30;20048;-76
2022/11/11 06:58:29;;;;;;;23.25;10.80;;;16.10;77.60;;;;;;4736793;30;20441;-76
2022/11/11 07:00:54;;;;;;;20.02;10.20;;;16.20;77.70;;;;;;4736915;30;20061;-77
2022/11/11 07:03:21;;;;;;;20.67;10.57;;;16.20;77.70;;;;;;4736674;30;20064;-78
2022/11/11 07:05:54;;;;;;;20.23;10.02;;;16.20;77.70;;;;;;4721526;30;20060;-78
2022/11/11 07:08:19;;;;;;;19.65;10.55;;;16.20;77.80;;;;;;4737175;30;20044;-77
2022/11/11 07:10:47;;;;;;;15.57;9.68;;;16.20;77.80;;;;;;4737003;30;20068;-78
2022/11/11 07:13:15;;;;;;;18.55;9.40;;;16.20;77.80;;;;;;4736395;30;20127;-77
2022/11/11 07:15:42;;;;;;;23.25;10.30;;;16.20;77.80;;;;;;4736588;30;20053;-77
2022/11/11 07:18:08;;;;;;;16.73;9.45;;;16.20;77.80;;;;;;4736770;30;20056;-77
2022/11/11 07:20:34;;;;;;;15.45;9.18;;;16.20;77.70;;;;;;4736976;30;20057;-78
2022/11/11 07:22:59;;;;;;;18.85;9.32;;;16.20;77.60;;;;;;4736740;30;20130;-77
2022/11/11 07:25:25;;;;;;;18.70;9.27;;;16.20;77.60;;;;;;4736492;30;20057;-79
2022/11/11 07:27:51;;;;;;;15.27;9.15;;;16.20;77.60;;;;;;4736630;30;20144;-77
2022/11/11 07:30:18;;;;;;;18.13;9.02;;;16.20;77.60;;;;;;4736914;30;20057;-79
2022/11/11 07:32:49;;;;;;;15.88;8.93;;;16.20;77.60;;;;;;4721017;30;20139;-77
2022/11/11 07:35:16;;;;;;;12.25;8.55;;;16.10;77.50;;;;;;4721205;30;20236;-77
2022/11/11 07:37:51;;;;;;;10.35;6.43;;;16.10;77.50;;;;;;4720356;30;20052;-75
2022/11/11 07:40:18;;;;;;;8.77;7.05;;;16.00;76.10;;;;;;4722941;30;20051;-76
2022/11/11 07:42:44;;;;;;;12.25;6.43;;;15.90;76.80;;;;;;4748690;30;20044;-76
2022/11/11 07:45:11;;;;;;;10.40;5.97;;;15.80;76.90;;;;;;4736451;30;20053;-76
2022/11/11 07:47:37;;;;;;;6.85;4.88;;;15.70;77.10;;;;;;4736275;30;20456;-76
2022/11/11 07:50:05;;;;;;;8.55;5.50;;;15.70;77.10;;;;;;4720952;30;20053;-78
2022/11/11 07:52:31;;;;;;;11.43;6.10;;;15.70;78.00;;;;;;4736210;30;20119;-77
2022/11/11 07:54:56;;;;;;;8.65;6.15;;;15.60;77.50;;;;;;4736039;30;20079;-78
2022/11/11 07:57:22;;;;;;;9.45;6.20;;;15.60;77.70;;;;;;4736896;30;20449;-78
2022/11/11 07:59:48;;;;;;;8.02;6.07;;;15.60;77.80;;;;;;4739210;30;20052;-77
2022/11/11 08:02:14;;;;;;;9.48;5.60;;;15.60;77.90;;;;;;4739427;30;20045;-78
2022/11/11 08:04:40;;;;;;;9.82;5.22;;;15.60;78.00;;;;;;4739071;30;20060;-76
2022/11/11 08:07:06;;;;;;;10.85;6.40;;;15.60;78.00;;;;;;4738794;30;20048;-78
2022/11/11 08:09:32;;;;;;;12.60;6.22;;;15.60;78.20;;;;;;4739066;30;20464;-79
2022/11/11 08:14:42;;;;;;;14.43;5.50;;;15.60;78.20;;;;;;4722946;30;20135;-79
2022/11/11 08:17:07;;;;;;;8.90;5.40;;;15.60;78.20;;;;;;4708827;30;20175;-81
2022/11/11 08:19:33;;;;;;;9.65;5.25;;;15.60;78.30;;;;;;4738707;30;20049;-83
2022/11/11 08:21:59;;;;;;;7.70;4.90;;;15.60;78.20;;;;;;4738302;30;20068;-79
2022/11/11 08:24:25;;;;;;;6.18;4.35;;;15.60;78.30;;;;;;4723410;30;20137;-77
2022/11/11 08:26:52;;;;;;;8.20;4.55;;;15.60;78.40;;;;;;4739104;30;20045;-78
2022/11/11 08:29:18;;;;;;;10.10;5.40;;;15.60;78.40;;;;;;4737926;30;20482;-79
2022/11/11 08:31:44;;;;;;;13.20;6.20;;;15.60;78.90;;;;;;4708389;30;20048;-80
2022/11/11 08:34:11;;;;;;;10.30;6.20;;;15.70;79.30;;;;;;4723056;30;20051;-77
2022/11/11 08:36:37;;;;;;;9.70;5.40;;;15.80;79.00;;;;;;4723017;30;20123;-79
2022/11/11 08:39:03;;;;;;;10.23;5.25;;;16.00;78.60;;;;;;4738764;30;20049;-77
2022/11/11 08:41:29;;;;;;;12.90;5.53;;;16.20;78.30;;;;;;4738913;30;20118;-79
2022/11/11 08:43:55;;;;;;;13.80;5.20;;;16.30;78.10;;;;;;4708904;30;20377;-80
2022/11/11 08:46:21;;;;;;;14.30;5.35;;;16.50;77.80;;;;;;4738890;30;20461;-81
2022/11/11 08:48:47;;;;;;;12.70;5.82;;;16.60;77.50;;;;;;4738228;30;20437;-78
2022/11/11 08:51:13;;;;;;;11.93;4.68;;;16.70;77.40;;;;;;4723593;30;20088;-77
2022/11/11 08:53:39;;;;;;;14.20;5.55;;;16.80;77.30;;;;;;4723368;30;20060;-79
2022/11/11 08:56:05;;;;;;;15.20;5.05;;;16.80;77.20;;;;;;4723420;30;20056;-79
2022/11/11 08:58:31;;;;;;;13.40;5.22;;;16.80;77.00;;;;;;4723223;30;20052;-79
2022/11/11 09:00:57;;;;;;;16.65;4.90;;;16.90;77.30;;;;;;4738648;30;20109;-76
2022/11/11 09:03:23;;;;;;;17.23;5.93;;;16.90;77.30;;;;;;4738268;30;20053;-78
2022/11/11 09:05:49;;;;;;;13.80;4.25;;;16.90;78.00;;;;;;4738915;30;20049;-77
2022/11/11 09:08:15;;;;;;;15.52;5.13;;;16.90;77.50;;;;;;4738326;30;20469;-77
2022/11/11 09:10:41;;;;;;;8.45;4.38;;;16.90;77.60;;;;;;4738223;30;20044;-78
2022/11/11 09:13:07;;;;;;;13.68;4.03;;;16.90;77.80;;;;;;4738237;30;20443;-78
2022/11/11 09:15:33;;;;;;;9.85;4.05;;;16.90;77.90;;;;;;4737788;30;20190;-77
2022/11/11 09:18:00;;;;;;;9.20;3.58;;;17.00;77.90;;;;;;4723503;30;20067;-78
2022/11/11 09:20:26;;;;;;;8.40;3.97;;;17.00;77.90;;;;;;4722915;30;20061;-78
2022/11/11 09:22:52;;;;;;;11.57;4.50;;;17.00;77.90;;;;;;4737965;30;20048;-80
2022/11/11 09:25:18;;;;;;;12.45;4.30;;;17.00;77.80;;;;;;4738221;30;20058;-79
2022/11/11 09:27:59;;;;;;;14.10;3.97;;;17.00;77.80;;;;;;4738362;30;20048;-78
2022/11/11 09:30:26;;;;;;;14.80;4.70;;;17.00;77.90;;;;;;4722435;30;20083;-79
2022/11/11 09:32:53;;;;;;;12.10;3.30;;;17.00;77.80;;;;;;4738357;30;20063;-78
2022/11/11 09:35:20;;;;;;;12.27;3.78;;;17.10;77.80;;;;;;4737001;30;20059;-78
2022/11/11 09:37:56;;;;;;;10.95;2.85;;;17.10;77.60;;;;;;4737288;30;20114;-78
2022/11/11 09:40:24;;;;;;;9.45;3.35;;;17.30;77.70;;;;;;4722143;30;20068;-80
2022/11/11 09:43:05;;;;;;;7.88;3.30;;;17.30;77.40;;;;;;4737586;30;20054;-78
2022/11/11 09:45:58;;;;;;;8.65;2.83;;;17.40;77.20;;;;;;4738061;30;20060;-79
2022/11/11 09:49:00;;;;;;;6.43;2.75;;;17.50;77.10;;;;;;4722460;30;20104;-79
2022/11/11 09:51:31;;;;;;;14.75;3.28;;;17.50;76.40;;;;;;4687170;30;20064;-79
2022/11/11 09:54:06;;;;;;;13.02;3.60;;;17.50;76.70;;;;;;4737821;30;20441;-80
2022/11/11 09:56:33;;;;;;;17.33;3.00;;;17.60;76.70;;;;;;4708665;30;20335;-79
2022/11/11 09:59:10;;;;;;;11.85;3.28;;;17.70;76.50;;;;;;4708151;30;20125;-79
2022/11/11 10:01:43;;;;;;;9.23;3.20;;;17.80;76.10;;;;;;4707984;30;20061;-78
2022/11/11 10:04:15;;;;;;;9.32;3.88;;;17.80;76.30;;;;;;4737512;30;20126;-79
2022/11/11 10:06:42;;;;;;;8.63;3.25;;;17.80;76.20;;;;;;4738093;30;20478;-79
2022/11/11 10:09:29;;;;;;;12.10;3.70;;;17.80;76.10;;;;;;4737518;30;20358;-78
2022/11/11 10:12:23;;;;;;;8.00;3.00;;;17.70;75.60;;;;;;4720868;30;20477;-79
2022/11/11 10:14:50;;;;;;;7.63;3.28;;;17.70;75.80;;;;;;4721563;30;20056;-79
2022/11/11 10:17:18;;;;;;;7.97;3.40;;;17.70;76.10;;;;;;4735438;30;20057;-78
2022/11/11 10:20:14;;;;;;;4.72;3.63;;;17.70;76.10;;;;;;4734602;30;20045;-79
2022/11/11 10:22:42;;;;;;;6.97;3.65;;;17.70;76.20;;;;;;4721032;30;20424;-78
2022/11/11 10:25:15;;;;;;;10.57;3.80;;;17.60;76.30;;;;;;4735907;30;20702;-78
2022/11/11 10:27:48;;;;;;;7.50;3.88;;;17.60;76.40;;;;;;4736932;30;20070;-80
2022/11/11 10:30:17;;;;;;;6.80;3.78;;;17.60;76.50;;;;;;4721557;30;20044;-80
2022/11/11 10:32:46;;;;;;;11.02;4.30;;;17.50;76.50;;;;;;4736576;30;20144;-80
2022/11/11 10:35:16;;;;;;;10.27;4.38;;;17.20;75.20;;;;;;4737329;30;20052;-80
2022/11/11 10:37:43;;;;;;;8.52;4.40;;;17.00;76.30;;;;;;4721283;30;20056;-79
2022/11/11 10:40:34;;;;;;;8.40;3.80;;;16.90;77.00;;;;;;4705993;30;20063;-78
2022/11/11 10:42:59;;;;;;;7.03;3.90;;;16.80;77.40;;;;;;4736929;30;20467;-79
2022/11/11 10:45:32;;;;;;;10.82;4.47;;;16.70;77.70;;;;;;4735986;30;20146;-78
2022/11/11 10:48:05;;;;;;;18.55;4.13;;;16.70;77.60;;;;;;4736003;30;20517;-79
2022/11/11 10:50:46;;;;;;;6.43;3.95;;;16.60;76.70;;;;;;4736916;30;20498;-78
2022/11/11 10:53:31;;;;;;;11.35;4.47;;;16.60;77.40;;;;;;4706653;30;20056;-79
2022/11/11 10:56:04;;;;;;;8.40;3.83;;;16.60;77.30;;;;;;4736640;30;20052;-78
2022/11/11 10:58:55;;;;;;;9.07;4.20;;;16.50;77.60;;;;;;4706953;30;20061;-78
2022/11/11 11:01:55;;;;;;;6.22;3.95;;;16.40;77.90;;;;;;4735304;30;20053;-78
2022/11/11 11:04:45;;;;;;;7.32;3.90;;;16.40;78.10;;;;;;4712076;30;20101;-79
2022/11/11 11:07:16;;;;;;;10.10;3.50;;;16.40;78.30;;;;;;4721619;30;20092;-80
2022/11/11 11:09:50;;;;;;;7.45;4.05;;;16.40;78.20;;;;;;4736839;30;20420;-79
2022/11/11 11:12:25;;;;;;;;;;;16.50;78.00;;;;;;4736856;30;21811;-78
2022/11/11 11:14:55;;;;;;;7.25;4.13;;;16.40;77.80;;;;;;4721318;30;20347;-78
2022/11/11 11:17:41;;;;;;;7.57;3.90;;;16.40;78.10;;;;;;4717779;30;20093;-79
2022/11/11 11:20:20;;;;;;;6.85;3.70;;;16.40;77.90;;;;;;4735085;30;20118;-79
2022/11/11 11:22:58;;;;;;;7.47;3.42;;;16.40;78.10;;;;;;4720955;30;20061;-79
2022/11/11 11:25:29;;;;;;;7.05;3.00;;;16.40;78.10;;;;;;4748753;30;20063;-82
2022/11/11 11:28:07;;;;;;;8.27;3.63;;;16.30;78.20;;;;;;4753569;30;20105;-81
2022/11/11 11:30:33;;;;;;;6.93;3.38;;;16.40;77.90;;;;;;4756412;30;20125;-80
2022/11/11 11:33:02;;;;;;;7.00;3.63;;;16.30;78.10;;;;;;4757715;30;20415;-80
2022/11/11 11:35:30;;;;;;;8.52;3.70;;;16.20;78.10;;;;;;4757226;30;20048;-79
2022/11/11 11:37:55;;;;;;;7.93;3.58;;;16.20;78.20;;;;;;4741169;30;20056;-79
2022/11/11 11:40:21;;;;;;;7.35;3.50;;;16.20;78.20;;;;;;4739524;30;20114;-77
2022/11/11 11:42:47;;;;;;;16.45;11.73;;;16.20;78.30;;;;;;4739618;30;20055;-79
2022/11/11 11:45:22;;;;;;;21.35;15.63;;;16.30;77.70;;;;;;4738168;30;20118;-80
2022/11/11 11:48:03;;;;;;;18.83;15.48;;;16.40;74.80;;;;;;4722524;30;20057;-78
2022/11/11 11:50:34;;;;;;;20.60;13.02;;;16.40;73.80;;;;;;4722057;30;20064;-76
2022/11/11 11:53:38;;;;;;;14.18;11.50;;;16.30;74.90;;;;;;4706786;30;20085;-80
2022/11/11 11:56:19;;;;;;;13.23;10.55;;;16.20;76.20;;;;;;4706875;30;20040;-79
2022/11/11 11:59:03;;;;;;;15.43;9.15;;;16.20;76.70;;;;;;4692088;30;20041;-80
2022/11/11 12:01:50;;;;;;;12.65;8.48;;;16.10;77.00;;;;;;4721825;30;20051;-79
2022/11/11 12:04:38;;;;;;;11.13;7.50;;;16.10;77.30;;;;;;4704862;30;20076;-80
2022/11/11 12:07:11;;;;;;;12.57;8.60;;;16.10;77.50;;;;;;4704662;30;20366;-78
2022/11/11 12:10:19;;;;;;;13.10;8.05;;;16.00;77.70;;;;;;4705156;30;20366;-80
2022/11/11 12:12:51;;;;;;;9.57;7.93;;;16.00;77.80;;;;;;4704632;30;20053;-77
2022/11/11 12:15:39;;;;;;;9.23;7.13;;;16.00;78.00;;;;;;4704110;30;20065;-78
2022/11/11 12:18:07;;;;;;;10.48;7.15;;;15.90;78.10;;;;;;4704389;30;20049;-78
2022/11/11 12:20:44;;;;;;;11.40;7.05;;;15.90;78.20;;;;;;4689421;30;20057;-79
2022/11/11 12:23:41;;;;;;;11.63;6.35;;;15.90;78.30;;;;;;4689129;30;20050;-77
2022/11/11 12:26:10;;;;;;;9.05;5.88;;;15.90;79.00;;;;;;4704175;30;20061;-78
2022/11/11 12:29:08;;;;;;;6.13;5.53;;;15.90;78.50;;;;;;4674953;30;20501;-77
2022/11/11 12:32:00;;;;;;;10.02;5.93;;;15.90;78.50;;;;;;4688091;30;20057;-77
2022/11/11 12:35:01;;;;;;;12.75;6.18;;;15.90;78.60;;;;;;4706237;30;20432;-77
2022/11/11 12:37:45;;;;;;;10.07;5.53;;;15.90;78.70;;;;;;4721412;30;20060;-80
2022/11/11 12:40:15;;;;;;;;;;;15.90;78.70;;;;;;4721734;30;20523;-80
2022/11/11 12:42:58;;;;;;;20.00;6.90;;;16.00;78.50;;;;;;4720694;30;19923;-78
2022/11/11 12:45:45;;;;;;;21.27;6.78;;;16.10;78.80;;;;;;4722135;30;20110;-79
2022/11/11 12:48:54;;;;;;;16.80;5.25;;;16.10;78.70;;;;;;4738573;30;20131;-78
2022/11/11 12:51:39;;;;;;;13.52;5.63;;;16.20;78.40;;;;;;4684972;30;20061;-78
2022/11/11 12:54:40;;;;;;;14.95;5.63;;;16.20;78.20;;;;;;4738963;30;20064;-80
2022/11/11 12:57:22;;;;;;;17.55;6.22;;;16.30;78.20;;;;;;4738289;30;20453;-78
2022/11/11 13:00:03;;;;;;;13.98;6.13;;;16.30;78.10;;;;;;4738440;30;20064;-80
2022/11/11 13:02:35;;;;;;;15.95;5.35;;;16.30;77.90;;;;;;4738236;30;20464;-80
2022/11/11 13:05:10;;;;;;;11.70;6.57;;;16.30;77.80;;;;;;4738653;30;20418;-78
2022/11/11 13:07:54;;;;;;;10.15;6.65;;;16.40;78.40;;;;;;4708510;30;20065;-78
2022/11/11 13:10:37;;;;;;;13.95;7.05;;;16.30;77.60;;;;;;4722861;30;20136;-81
2022/11/11 13:13:29;;;;;;;13.90;6.95;;;16.40;78.20;;;;;;4723216;30;20052;-79
2022/11/11 13:15:55;;;;;;;10.52;6.22;;;16.40;77.60;;;;;;4723071;30;20064;-79
2022/11/11 13:18:31;;;;;;;10.73;7.13;;;16.40;77.50;;;;;;4722665;30;20134;-78
2022/11/11 13:21:06;;;;;;;13.48;7.10;;;16.50;77.40;;;;;;4738508;30;20053;-78
2022/11/11 13:23:32;;;;;;;10.68;5.95;;;16.40;77.30;;;;;;4738544;30;20051;-79
2022/11/11 13:26:03;;;;;;;9.85;7.10;;;16.50;77.30;;;;;;4722500;30;20457;-80
2022/11/11 13:28:39;;;;;;;9.90;6.40;;;16.50;77.30;;;;;;4707954;30;20057;-77
2022/11/11 13:31:25;;;;;;;8.35;6.40;;;16.50;77.30;;;;;;4737499;30;20084;-78
2022/11/11 13:33:56;;;;;;;10.10;6.75;;;16.50;77.10;;;;;;4738231;30;20119;-78
2022/11/11 13:36:26;;;;;;;9.70;6.78;;;16.50;77.10;;;;;;4738672;30;20522;-78
2022/11/11 13:38:59;;;;;;;9.02;6.50;;;16.50;77.00;;;;;;4738144;30;20068;-79
2022/11/11 13:41:30;;;;;;;8.75;6.78;;;16.50;76.90;;;;;;4738268;30;20514;-76
2022/11/11 13:44:04;;;;;;;14.95;7.05;;;16.50;76.90;;;;;;4738258;30;20334;-79
2022/11/11 13:46:33;;;;;;;13.75;6.57;;;16.50;76.70;;;;;;4722326;30;20389;-82
2022/11/11 13:49:04;;;;;;;11.00;6.22;;;16.50;76.80;;;;;;4738023;30;20067;-80
2022/11/11 13:51:40;;;;;;;13.52;5.90;;;16.50;76.90;;;;;;4737558;30;20048;-79
2022/11/11 13:54:23;;;;;;;12.02;5.43;;;16.50;76.90;;;;;;4722315;30;20118;-79
2022/11/11 13:56:51;;;;;;;12.57;5.30;;;16.50;77.00;;;;;;4737527;30;20345;-76
2022/11/11 13:59:26;;;;;;;11.63;4.65;;;16.50;77.10;;;;;;4737676;30;20123;-77
2022/11/11 14:02:12;;;;;;;13.63;4.65;;;16.40;77.10;;;;;;4736844;30;20057;-77
2022/11/11 14:05:00;;;;;;;11.57;5.07;;;16.40;77.00;;;;;;4737656;30;20049;-78
2022/11/11 14:07:59;;;;;;;12.18;5.35;;;16.40;77.20;;;;;;4737413;30;20193;-75
2022/11/11 14:14:44;;;;;;;10.07;4.35;;;16.40;77.20;;;;;;4719601;30;20071;-78
2022/11/11 14:20:58;;;;;;;14.07;4.68;;;16.40;77.30;;;;;;4730911;30;20048;-79
2022/11/11 14:35:01;;;;;;;7.82;4.10;;;16.40;77.20;;;;;;4665912;30;20049;-80
2022/11/11 14:41:47;;;;;;;9.23;4.32;;;16.30;77.20;;;;;;4665845;30;20111;-79
2022/11/11 14:48:52;;;;;;;18.90;5.00;;;16.20;77.70;;;;;;4643656;30;20500;-78
2022/11/11 14:55:18;;;;;;;20.48;4.88;;;16.10;78.00;;;;;;4669564;30;20058;-79
2022/11/11 14:58:16;;;;;;;11.65;4.65;;;16.00;78.10;;;;;;4718997;30;20041;-78
2022/11/11 15:00:50;;;;;;;11.18;4.45;;;16.00;78.10;;;;;;4708299;30;20052;-79
2022/11/11 15:03:31;;;;;;;14.68;4.00;;;15.90;78.20;;;;;;4706550;30;20059;-78
2022/11/11 15:06:03;;;;;;;9.38;4.22;;;15.90;78.30;;;;;;4720610;30;20055;-79
2022/11/11 15:09:07;;;;;;;11.60;4.22;;;15.90;78.40;;;;;;4721067;30;20091;-79
2022/11/11 15:11:50;;;;;;;13.65;4.15;;;15.90;78.40;;;;;;4651252;30;20062;-78
2022/11/11 15:14:36;;;;;;;10.75;4.00;;;15.90;78.50;;;;;;4665299;30;20098;-82
2022/11/11 15:17:24;;;;;;;6.97;3.83;;;15.80;78.60;;;;;;4701968;30;20092;-80
2022/11/11 15:20:23;;;;;;;7.13;4.15;;;15.80;78.50;;;;;;4736671;30;20061;-80
2022/11/11 15:22:53;;;;;;;12.45;3.67;;;15.80;78.60;;;;;;4706921;30;20056;-78
2022/11/11 15:25:51;;;;;;;8.63;3.75;;;15.80;78.80;;;;;;4736266;30;20501;-76
2022/11/11 15:28:32;;;;;;;10.43;4.10;;;15.80;78.80;;;;;;4736532;30;20053;-77
2022/11/11 15:31:40;;;;;;;8.70;3.97;;;15.90;78.90;;;;;;4736274;30;20124;-76
2022/11/11 15:34:16;;;;;;;14.13;5.25;;;15.90;78.70;;;;;;4696536;30;20064;-77
2022/11/11 15:36:45;;;;;;;16.58;4.35;;;15.90;78.70;;;;;;4736109;30;20068;-76
2022/11/11 15:39:15;;;;;;;16.20;4.60;;;15.90;78.50;;;;;;4720290;30;20080;-77
2022/11/11 15:41:42;;;;;;;17.48;4.82;;;15.90;78.50;;;;;;4736448;30;20468;-76
2022/11/11 15:44:25;;;;;;;20.70;5.20;;;15.90;78.60;;;;;;4735781;30;20045;-79
2022/11/11 15:46:52;;;;;;;23.80;10.10;;;15.90;78.60;;;;;;4736950;30;20201;-77
2022/11/11 15:49:37;;;;;;;20.65;12.57;;;16.00;78.10;;;;;;4720206;30;20551;-77
2022/11/11 15:52:22;;;;;;;17.33;11.63;;;16.10;75.90;;;;;;4736240;30;20045;-77
2022/11/11 15:54:49;;;;;;;18.45;10.82;;;16.00;75.70;;;;;;4729038;30;20052;-76
2022/11/11 15:57:28;;;;;;;21.10;10.25;;;16.00;76.30;;;;;;4720915;30;20135;-76
2022/11/11 16:00:02;;;;;;;25.20;9.02;;;16.00;76.60;;;;;;4730179;30;20053;-79
2022/11/11 16:02:33;;;;;;;19.52;9.13;;;15.90;77.00;;;;;;4735950;30;20060;-79
2022/11/11 16:05:06;;;;;;;15.57;8.35;;;15.90;77.20;;;;;;4706428;30;20122;-80
2022/11/11 16:07:44;;;;;;;20.00;8.07;;;15.90;77.50;;;;;;4736124;30;20409;-80
2022/11/11 16:54:19;;;;;;;12.43;5.20;;;15.80;78.50;;;;;;4701587;30;20045;-79
2022/11/11 17:17:12;;;;;;;8.55;5.07;;;15.80;78.80;;;;;;4487979;31;20059;-79
2022/11/11 17:19:38;;;;;;;13.82;7.50;;;15.80;78.80;;;;;;4476065;31;20112;-79
2022/11/11 18:23:47;;;;;;;15.23;7.10;;;16.20;77.10;;;;;;5143823;25;20084;-80
2022/11/11 18:26:13;;;;;;;17.88;7.65;;;16.20;77.10;;;;;;4719791;30;20455;-78
2022/11/11 18:28:42;;;;;;;14.85;7.78;;;16.20;76.90;;;;;;4719194;30;20052;-79
2022/11/11 18:31:10;;;;;;;7.43;6.28;;;16.20;77.00;;;;;;4703765;30;20049;-77
2022/11/11 18:33:37;;;;;;;11.38;7.43;;;16.20;77.10;;;;;;4719491;30;20048;-77
2022/11/11 18:36:07;;;;;;;9.77;7.22;;;16.20;77.10;;;;;;4719934;30;20127;-80
2022/11/11 18:38:33;;;;;;;23.08;8.70;;;16.20;77.00;;;;;;4689939;30;20087;-78
2022/11/11 18:41:07;;;;;;;11.15;7.88;;;16.20;77.00;;;;;;4719154;30;20515;-77
2022/11/11 18:43:39;;;;;;;10.07;8.38;;;16.20;76.90;;;;;;4690151;30;20057;-78
2022/11/11 18:46:10;;;;;;;15.50;8.05;;;16.20;76.90;;;;;;4704528;30;20470;-77
2022/11/11 18:48:37;;;;;;;12.98;8.65;;;16.20;76.80;;;;;;4690266;30;20084;-77
2022/11/11 18:51:03;;;;;;;10.63;7.57;;;16.20;76.80;;;;;;4719786;30;20187;-78
2022/11/11 18:53:31;;;;;;;10.70;7.18;;;16.20;76.80;;;;;;4719583;30;20057;-78
2022/11/11 18:56:22;;;;;;;10.85;7.18;;;16.20;76.70;;;;;;4719372;30;20435;-76
2022/11/11 18:58:56;;;;;;;11.23;6.95;;;16.30;76.70;;;;;;4682428;30;20126;-78
2022/11/11 19:01:28;;;;;;;9.32;6.78;;;16.30;76.60;;;;;;4701989;30;20119;-77
2022/11/11 19:04:03;;;;;;;11.15;7.95;;;16.20;76.60;;;;;;4702167;30;20062;-77
2022/11/11 19:06:31;;;;;;;10.65;6.78;;;16.20;76.60;;;;;;4701887;30;20053;-77
2022/11/11 19:08:59;;;;;;;20.02;13.23;;;16.30;76.50;;;;;;4704091;30;20151;-73
2022/11/11 19:11:27;;;;;;;20.83;15.35;;;16.30;74.80;;;;;;4698907;30;20137;-74
2022/11/11 19:13:53;;;;;;;20.13;15.10;;;16.20;73.20;;;;;;4719434;30;20089;-72
2022/11/11 19:16:22;;;;;;;21.33;14.50;;;16.10;72.30;;;;;;4719339;30;20068;-76
2022/11/11 19:18:49;;;;;;;18.70;14.32;;;15.90;72.90;;;;;;4704267;30;20052;-78
2022/11/11 19:21:26;;;;;;;20.90;14.27;;;15.90;73.40;;;;;;4718651;30;20048;-80
2022/11/11 19:23:54;;;;;;;22.80;13.85;;;15.90;73.90;;;;;;4727647;30;20497;-77
2022/11/11 19:26:21;;;;;;;19.92;12.77;;;15.90;74.20;;;;;;4717605;30;20432;-79
2022/11/11 19:28:47;;;;;;;18.25;13.40;;;15.90;74.50;;;;;;4736593;30;20118;-76
2022/11/11 19:31:18;;;;;;;19.25;13.00;;;15.90;74.70;;;;;;4736327;30;20052;-78
2022/11/11 19:33:46;;;;;;;17.05;12.88;;;16.00;74.90;;;;;;4736893;30;20131;-77
2022/11/11 19:36:14;;;;;;;17.95;12.15;;;16.00;74.90;;;;;;4736266;30;20091;-76
2022/11/11 19:38:40;;;;;;;15.05;11.48;;;16.00;74.90;;;;;;4736625;30;20056;-76
2022/11/11 19:41:09;;;;;;;18.35;11.57;;;16.10;75.00;;;;;;4736487;30;20060;-77
2022/11/11 19:43:36;;;;;;;13.27;10.82;;;16.10;75.00;;;;;;4735752;30;20150;-78
2022/11/11 19:46:03;;;;;;;13.93;11.18;;;16.10;75.10;;;;;;4721218;30;20099;-78
2022/11/11 19:48:29;;;;;;;16.63;11.57;;;16.10;75.10;;;;;;4736660;30;20052;-78
2022/11/11 19:50:55;;;;;;;14.73;11.18;;;16.10;75.20;;;;;;4736709;30;20126;-79
2022/11/11 19:53:20;;;;;;;14.95;11.05;;;16.10;75.30;;;;;;4739944;30;20084;-77
2022/11/11 19:56:10;;;;;;;14.88;11.02;;;16.10;75.40;;;;;;4739591;30;20052;-80
2022/11/11 19:58:37;;;;;;;13.43;11.43;;;16.10;75.40;;;;;;4739902;30;20434;-78
2022/11/11 20:01:10;;;;;;;12.23;9.75;;;16.10;75.40;;;;;;4739346;30;20593;-78
2022/11/11 20:03:36;;;;;;;13.27;10.02;;;16.10;75.40;;;;;;4739660;30;20059;-78
2022/11/11 20:06:03;;;;;;;11.50;9.77;;;16.10;75.40;;;;;;4724559;30;20066;-79
2022/11/11 20:08:30;;;;;;;12.93;9.73;;;16.10;75.40;;;;;;4724228;30;20068;-77